sensor_id;sensor_type;location;lat;lon;timestamp;pressure;altitude;pressure_sealevel;temperature;humidity
47366;BME280;33105;47.964;7.982;2023-04-04T00:02:34;97218.41;;;-0.89;78.50
47366;BME280;33105;47.964;7.982;2023-04-04T00:05:35;97205.13;;;-0.82;78.31
47366;BME280;33105;47.964;7.982;2023-04-04T00:08:37;97212.03;;;-0.88;77.68
47366;BME280;33105;47.964;7.982;2023-04-04T00:11:39;97212.31;;;-0.83;77.41
47366;BME280;33105;47.964;7.982;2023-04-04T00:14:41;97210.88;;;-0.71;78.13
47366;BME280;33105;47.964;7.982;2023-04-04T00:17:42;97204.69;;;-0.94;78.27
47366;BME280;33105;47.964;7.982;2023-04-04T00:20:44;97206.47;;;-1.09;78.12
47366;BME280;33105;47.964;7.982;2023-04-04T00:23:45;97208.16;;;-0.85;78.26
47366;BME280;33105;47.964;7.982;2023-04-04T00:26:46;97197.59;;;-0.49;76.29
47366;BME280;33105;47.964;7.982;2023-04-04T00:29:47;97203.19;;;-0.74;77.17
47366;BME280;33105;47.964;7.982;2023-04-04T00:32:49;97200.06;;;-0.77;77.73
47366;BME280;33105;47.964;7.982;2023-04-04T00:35:50;97199.22;;;-0.78;76.57
47366;BME280;33105;47.964;7.982;2023-04-04T00:38:51;97202.06;;;-0.79;76.46
47366;BME280;33105;47.964;7.982;2023-04-04T00:41:53;97191.22;;;-0.86;75.28
47366;BME280;33105;47.964;7.982;2023-04-04T00:44:54;97190.72;;;-0.66;72.64
47366;BME280;33105;47.964;7.982;2023-04-04T00:47:56;97191.72;;;-0.68;71.61
47366;BME280;33105;47.964;7.982;2023-04-04T00:50:57;97193.16;;;-0.57;71.23
47366;BME280;33105;47.964;7.982;2023-04-04T00:53:59;97192.81;;;-0.54;71.49
47366;BME280;33105;47.964;7.982;2023-04-04T00:57:01;97191.44;;;-0.50;69.86
47366;BME280;33105;47.964;7.982;2023-04-04T01:00:05;97196.88;;;-0.43;71.14
47366;BME280;33105;47.964;7.982;2023-04-04T01:03:08;97181.78;;;-0.44;68.78
47366;BME280;33105;47.964;7.982;2023-04-04T01:06:13;97185.41;;;-0.37;66.51
47366;BME280;33105;47.964;7.982;2023-04-04T01:09:15;97193.41;;;-0.29;67.62
47366;BME280;33105;47.964;7.982;2023-04-04T01:12:17;97193.47;;;-0.22;67.50
47366;BME280;33105;47.964;7.982;2023-04-04T01:15:18;97182.47;;;-0.27;67.25
47366;BME280;33105;47.964;7.982;2023-04-04T01:18:21;97184.78;;;-0.24;66.86
47366;BME280;33105;47.964;7.982;2023-04-04T01:21:25;97190.34;;;-0.26;66.88
47366;BME280;33105;47.964;7.982;2023-04-04T01:24:32;97178.88;;;-0.05;67.17
47366;BME280;33105;47.964;7.982;2023-04-04T01:27:33;97173.22;;;-0.10;67.41
47366;BME280;33105;47.964;7.982;2023-04-04T01:30:43;97179.91;;;-0.06;67.48
47366;BME280;33105;47.964;7.982;2023-04-04T01:33:58;97176.81;;;-0.18;67.94
47366;BME280;33105;47.964;7.982;2023-04-04T01:40:20;97177.84;;;-0.19;67.71
47366;BME280;33105;47.964;7.982;2023-04-04T01:43:26;97171.81;;;-0.36;70.67
47366;BME280;33105;47.964;7.982;2023-04-04T01:46:28;97168.56;;;-0.46;69.52
47366;BME280;33105;47.964;7.982;2023-04-04T01:49:29;97173.66;;;-0.51;69.19
47366;BME280;33105;47.964;7.982;2023-04-04T01:52:30;97177.78;;;-0.48;70.13
47366;BME280;33105;47.964;7.982;2023-04-04T01:55:32;97170.03;;;-0.43;67.57
47366;BME280;33105;47.964;7.982;2023-04-04T01:58:34;97171.50;;;-0.55;67.68
47366;BME280;33105;47.964;7.982;2023-04-04T02:01:35;97169.31;;;-0.52;69.58
47366;BME280;33105;47.964;7.982;2023-04-04T02:04:37;97167.81;;;-0.54;70.36
47366;BME280;33105;47.964;7.982;2023-04-04T02:07:38;97169.72;;;-0.63;69.01
47366;BME280;33105;47.964;7.982;2023-04-04T02:10:49;97167.47;;;-0.74;67.62
47366;BME280;33105;47.964;7.982;2023-04-04T02:13:50;97157.81;;;-0.60;68.50
47366;BME280;33105;47.964;7.982;2023-04-04T02:16:53;97166.03;;;-0.62;68.28
47366;BME280;33105;47.964;7.982;2023-04-04T02:19:55;97151.59;;;-0.61;70.45
47366;BME280;33105;47.964;7.982;2023-04-04T02:22:56;97160.66;;;-0.62;68.96
47366;BME280;33105;47.964;7.982;2023-04-04T02:25:58;97164.91;;;-0.68;70.13
47366;BME280;33105;47.964;7.982;2023-04-04T02:28:59;97160.38;;;-0.67;68.74
47366;BME280;33105;47.964;7.982;2023-04-04T02:32:00;97160.91;;;-0.72;71.75
47366;BME280;33105;47.964;7.982;2023-04-04T02:35:03;97166.19;;;-0.78;69.29
47366;BME280;33105;47.964;7.982;2023-04-04T02:38:04;97156.66;;;-0.81;69.72
47366;BME280;33105;47.964;7.982;2023-04-04T02:41:18;97155.28;;;-0.77;69.56
47366;BME280;33105;47.964;7.982;2023-04-04T02:44:19;97149.50;;;-0.88;70.23
47366;BME280;33105;47.964;7.982;2023-04-04T02:47:23;97147.63;;;-1.02;68.06
47366;BME280;33105;47.964;7.982;2023-04-04T02:50:24;97149.38;;;-0.95;67.13
47366;BME280;33105;47.964;7.982;2023-04-04T02:53:32;97146.78;;;-0.65;63.18
47366;BME280;33105;47.964;7.982;2023-04-04T02:56:40;97142.19;;;-0.57;63.80
47366;BME280;33105;47.964;7.982;2023-04-04T02:59:42;97143.97;;;-0.72;64.45
47366;BME280;33105;47.964;7.982;2023-04-04T03:02:43;97155.78;;;-0.58;64.24
47366;BME280;33105;47.964;7.982;2023-04-04T03:05:46;97144.88;;;-0.42;65.23
47366;BME280;33105;47.964;7.982;2023-04-04T03:08:49;97155.00;;;-0.67;66.59
47366;BME280;33105;47.964;7.982;2023-04-04T03:11:51;97143.16;;;-0.73;66.68
47366;BME280;33105;47.964;7.982;2023-04-04T03:14:52;97156.28;;;-0.78;66.41
47366;BME280;33105;47.964;7.982;2023-04-04T03:17:53;97146.56;;;-0.79;66.30
47366;BME280;33105;47.964;7.982;2023-04-04T03:20:58;97150.94;;;-0.78;66.55
47366;BME280;33105;47.964;7.982;2023-04-04T03:24:00;97142.94;;;-0.86;68.06
47366;BME280;33105;47.964;7.982;2023-04-04T03:27:01;97156.06;;;-0.91;66.72
47366;BME280;33105;47.964;7.982;2023-04-04T03:30:03;97152.38;;;-0.90;68.66
47366;BME280;33105;47.964;7.982;2023-04-04T03:33:07;97149.97;;;-0.85;67.43
47366;BME280;33105;47.964;7.982;2023-04-04T03:36:10;97142.91;;;-1.00;69.38
47366;BME280;33105;47.964;7.982;2023-04-04T03:39:12;97141.78;;;-1.06;70.24
47366;BME280;33105;47.964;7.982;2023-04-04T03:42:13;97140.13;;;-1.07;68.87
47366;BME280;33105;47.964;7.982;2023-04-04T03:45:15;97145.34;;;-1.14;68.71
47366;BME280;33105;47.964;7.982;2023-04-04T03:48:17;97144.69;;;-1.16;69.31
47366;BME280;33105;47.964;7.982;2023-04-04T03:51:22;97142.00;;;-1.16;69.36
47366;BME280;33105;47.964;7.982;2023-04-04T03:54:23;97142.84;;;-1.15;67.81
47366;BME280;33105;47.964;7.982;2023-04-04T03:57:25;97142.28;;;-1.25;67.03
47366;BME280;33105;47.964;7.982;2023-04-04T04:00:27;97153.09;;;-1.19;67.32
47366;BME280;33105;47.964;7.982;2023-04-04T04:03:28;97153.00;;;-1.25;66.08
47366;BME280;33105;47.964;7.982;2023-04-04T04:06:29;97145.81;;;-1.10;66.48
47366;BME280;33105;47.964;7.982;2023-04-04T04:09:30;97153.56;;;-1.15;65.76
47366;BME280;33105;47.964;7.982;2023-04-04T04:12:32;97156.31;;;-1.23;64.07
47366;BME280;33105;47.964;7.982;2023-04-04T04:15:33;97159.47;;;-1.20;63.50
47366;BME280;33105;47.964;7.982;2023-04-04T04:18:36;97151.84;;;-1.08;64.82
47366;BME280;33105;47.964;7.982;2023-04-04T04:21:40;97161.75;;;-1.09;65.72
47366;BME280;33105;47.964;7.982;2023-04-04T04:24:42;97147.16;;;-1.06;65.72
47366;BME280;33105;47.964;7.982;2023-04-04T04:27:44;97159.34;;;-1.04;65.79
47366;BME280;33105;47.964;7.982;2023-04-04T04:30:46;97153.56;;;-1.15;65.19
47366;BME280;33105;47.964;7.982;2023-04-04T04:33:52;97159.41;;;-1.12;65.77
47366;BME280;33105;47.964;7.982;2023-04-04T04:36:56;97164.06;;;-1.06;64.91
47366;BME280;33105;47.964;7.982;2023-04-04T04:40:06;97163.63;;;-1.17;65.53
47366;BME280;33105;47.964;7.982;2023-04-04T04:43:21;97163.94;;;-1.12;68.08
47366;BME280;33105;47.964;7.982;2023-04-04T04:46:24;97158.28;;;-1.17;68.52
47366;BME280;33105;47.964;7.982;2023-04-04T04:49:26;97176.16;;;-1.10;67.92
47366;BME280;33105;47.964;7.982;2023-04-04T04:52:27;97172.50;;;-1.17;66.58
47366;BME280;33105;47.964;7.982;2023-04-04T04:55:31;97182.47;;;-1.25;70.17
47366;BME280;33105;47.964;7.982;2023-04-04T04:58:38;97178.78;;;-1.24;70.86
47366;BME280;33105;47.964;7.982;2023-04-04T05:01:43;97183.75;;;-1.21;68.91
47366;BME280;33105;47.964;7.982;2023-04-04T05:04:44;97181.16;;;-1.29;70.14
47366;BME280;33105;47.964;7.982;2023-04-04T05:07:47;97174.16;;;-1.39;70.82
47366;BME280;33105;47.964;7.982;2023-04-04T05:10:49;97176.19;;;-1.41;71.06
47366;BME280;33105;47.964;7.982;2023-04-04T05:13:51;97184.88;;;-1.39;71.20
47366;BME280;33105;47.964;7.982;2023-04-04T05:16:53;97180.88;;;-1.43;70.83
47366;BME280;33105;47.964;7.982;2023-04-04T05:19:55;97176.56;;;-1.21;68.04
47366;BME280;33105;47.964;7.982;2023-04-04T05:22:57;97180.19;;;-1.37;71.13
47366;BME280;33105;47.964;7.982;2023-04-04T05:26:07;97182.53;;;-1.33;71.33
47366;BME280;33105;47.964;7.982;2023-04-04T05:29:11;97183.00;;;-1.30;69.61
47366;BME280;33105;47.964;7.982;2023-04-04T05:32:17;97185.78;;;-1.23;69.05
47366;BME280;33105;47.964;7.982;2023-04-04T05:35:26;97184.50;;;-1.27;68.29
47366;BME280;33105;47.964;7.982;2023-04-04T05:38:29;97191.63;;;-1.20;67.87
47366;BME280;33105;47.964;7.982;2023-04-04T05:41:32;97190.88;;;-1.28;69.03
47366;BME280;33105;47.964;7.982;2023-04-04T05:44:38;97204.63;;;-1.31;71.79
47366;BME280;33105;47.964;7.982;2023-04-04T05:47:42;97202.66;;;-1.15;68.78
47366;BME280;33105;47.964;7.982;2023-04-04T05:50:44;97206.44;;;-1.24;70.08
47366;BME280;33105;47.964;7.982;2023-04-04T05:53:47;97208.28;;;-1.24;68.61
47366;BME280;33105;47.964;7.982;2023-04-04T05:56:53;97209.34;;;-1.11;69.28
47366;BME280;33105;47.964;7.982;2023-04-04T06:00:11;97212.84;;;-1.10;69.20
47366;BME280;33105;47.964;7.982;2023-04-04T06:03:15;97210.53;;;-1.13;67.94
47366;BME280;33105;47.964;7.982;2023-04-04T06:06:18;97208.72;;;-0.98;67.21
47366;BME280;33105;47.964;7.982;2023-04-04T06:09:19;97205.69;;;-0.95;68.48
47366;BME280;33105;47.964;7.982;2023-04-04T06:12:20;97217.63;;;-0.37;64.26
47366;BME280;33105;47.964;7.982;2023-04-04T06:15:22;97206.69;;;-0.73;65.30
47366;BME280;33105;47.964;7.982;2023-04-04T06:18:25;97204.16;;;-0.89;66.59
47366;BME280;33105;47.964;7.982;2023-04-04T06:21:26;97212.38;;;-0.91;67.72
47366;BME280;33105;47.964;7.982;2023-04-04T06:24:27;97212.19;;;-0.89;68.73
47366;BME280;33105;47.964;7.982;2023-04-04T06:27:29;97211.88;;;-0.72;68.22
47366;BME280;33105;47.964;7.982;2023-04-04T06:30:34;97216.06;;;-0.69;65.30
47366;BME280;33105;47.964;7.982;2023-04-04T06:33:36;97207.53;;;-0.73;65.18
47366;BME280;33105;47.964;7.982;2023-04-04T06:36:37;97206.34;;;-0.18;64.66
47366;BME280;33105;47.964;7.982;2023-04-04T06:39:39;97201.19;;;-0.05;63.46
47366;BME280;33105;47.964;7.982;2023-04-04T06:42:47;97204.25;;;0.22;62.15
47366;BME280;33105;47.964;7.982;2023-04-04T06:45:49;97204.88;;;0.39;60.63
47366;BME280;33105;47.964;7.982;2023-04-04T06:48:53;97199.53;;;0.24;61.68
47366;BME280;33105;47.964;7.982;2023-04-04T06:51:54;97199.06;;;0.06;62.78
47366;BME280;33105;47.964;7.982;2023-04-04T06:54:56;97195.69;;;0.33;62.07
47366;BME280;33105;47.964;7.982;2023-04-04T06:57:57;97191.34;;;0.32;62.20
47366;BME280;33105;47.964;7.982;2023-04-04T07:01:00;97178.69;;;0.62;61.47
47366;BME280;33105;47.964;7.982;2023-04-04T07:04:01;97183.28;;;0.83;59.11
47366;BME280;33105;47.964;7.982;2023-04-04T07:07:03;97169.25;;;0.87;60.20
47366;BME280;33105;47.964;7.982;2023-04-04T07:10:04;97161.06;;;0.95;60.39
47366;BME280;33105;47.964;7.982;2023-04-04T07:13:06;97163.94;;;0.94;59.41
47366;BME280;33105;47.964;7.982;2023-04-04T07:16:07;97161.63;;;0.91;57.55
47366;BME280;33105;47.964;7.982;2023-04-04T07:19:09;97167.50;;;0.80;58.84
47366;BME280;33105;47.964;7.982;2023-04-04T07:22:10;97161.97;;;1.52;56.03
47366;BME280;33105;47.964;7.982;2023-04-04T07:25:11;97163.94;;;1.92;55.72
47366;BME280;33105;47.964;7.982;2023-04-04T07:28:13;97160.53;;;1.28;55.86
47366;BME280;33105;47.964;7.982;2023-04-04T07:31:15;97159.38;;;1.99;53.87
47366;BME280;33105;47.964;7.982;2023-04-04T07:34:16;97161.13;;;1.51;55.68
47366;BME280;33105;47.964;7.982;2023-04-04T07:37:17;97155.66;;;1.66;54.47
47366;BME280;33105;47.964;7.982;2023-04-04T07:40:19;97161.94;;;1.45;55.46
47366;BME280;33105;47.964;7.982;2023-04-04T07:43:20;97161.50;;;1.42;54.43
47366;BME280;33105;47.964;7.982;2023-04-04T07:46:21;97168.72;;;1.41;55.46
47366;BME280;33105;47.964;7.982;2023-04-04T07:49:23;97165.16;;;1.90;55.98
47366;BME280;33105;47.964;7.982;2023-04-04T07:52:24;97164.28;;;1.55;54.16
47366;BME280;33105;47.964;7.982;2023-04-04T07:55:25;97166.66;;;1.99;55.50
47366;BME280;33105;47.964;7.982;2023-04-04T07:58:26;97156.94;;;1.70;53.93
47366;BME280;33105;47.964;7.982;2023-04-04T08:01:27;97162.78;;;1.52;53.41
47366;BME280;33105;47.964;7.982;2023-04-04T08:04:29;97159.63;;;1.70;54.33
47366;BME280;33105;47.964;7.982;2023-04-04T08:07:30;97158.75;;;1.91;54.15
47366;BME280;33105;47.964;7.982;2023-04-04T08:10:31;97155.75;;;2.14;54.20
47366;BME280;33105;47.964;7.982;2023-04-04T08:13:32;97156.94;;;2.04;55.34
47366;BME280;33105;47.964;7.982;2023-04-04T08:16:33;97150.75;;;2.11;52.21
47366;BME280;33105;47.964;7.982;2023-04-04T08:19:35;97150.03;;;2.30;53.06
47366;BME280;33105;47.964;7.982;2023-04-04T08:22:37;97152.84;;;2.56;52.69
47366;BME280;33105;47.964;7.982;2023-04-04T08:25:38;97148.34;;;2.29;54.14
47366;BME280;33105;47.964;7.982;2023-04-04T08:28:39;97158.22;;;2.56;53.82
47366;BME280;33105;47.964;7.982;2023-04-04T08:31:40;97159.25;;;2.55;53.53
47366;BME280;33105;47.964;7.982;2023-04-04T08:34:42;97151.59;;;2.59;52.02
47366;BME280;33105;47.964;7.982;2023-04-04T08:37:44;97143.25;;;3.54;52.33
47366;BME280;33105;47.964;7.982;2023-04-04T08:40:48;97161.94;;;3.36;50.59
47366;BME280;33105;47.964;7.982;2023-04-04T08:43:52;97155.72;;;3.35;49.86
47366;BME280;33105;47.964;7.982;2023-04-04T08:46:54;97156.75;;;3.48;51.00
47366;BME280;33105;47.964;7.982;2023-04-04T08:49:58;97153.63;;;3.64;50.54
47366;BME280;33105;47.964;7.982;2023-04-04T08:53:01;97160.28;;;3.41;51.35
47366;BME280;33105;47.964;7.982;2023-04-04T08:56:04;97158.59;;;3.47;51.53
47366;BME280;33105;47.964;7.982;2023-04-04T08:59:06;97147.81;;;3.60;51.27
47366;BME280;33105;47.964;7.982;2023-04-04T09:05:09;97154.66;;;3.89;49.23
47366;BME280;33105;47.964;7.982;2023-04-04T09:08:13;97146.97;;;3.73;50.04
47366;BME280;33105;47.964;7.982;2023-04-04T09:11:15;97149.41;;;4.07;48.91
47366;BME280;33105;47.964;7.982;2023-04-04T09:14:18;97143.88;;;4.47;47.55
47366;BME280;33105;47.964;7.982;2023-04-04T09:17:21;97149.66;;;3.93;48.37
47366;BME280;33105;47.964;7.982;2023-04-04T09:20:36;97144.13;;;4.39;48.50
47366;BME280;33105;47.964;7.982;2023-04-04T09:23:38;97140.94;;;4.55;49.26
47366;BME280;33105;47.964;7.982;2023-04-04T09:26:52;97125.72;;;4.99;46.35
47366;BME280;33105;47.964;7.982;2023-04-04T09:29:55;97137.09;;;4.76;50.68
47366;BME280;33105;47.964;7.982;2023-04-04T09:33:02;97145.03;;;4.20;48.19
47366;BME280;33105;47.964;7.982;2023-04-04T09:36:06;97144.41;;;4.11;48.45
47366;BME280;33105;47.964;7.982;2023-04-04T09:39:10;97150.16;;;4.41;48.76
47366;BME280;33105;47.964;7.982;2023-04-04T09:42:11;97137.53;;;4.73;47.78
47366;BME280;33105;47.964;7.982;2023-04-04T09:45:13;97133.34;;;5.15;47.94
47366;BME280;33105;47.964;7.982;2023-04-04T09:57:51;97137.91;;;4.76;47.75
47366;BME280;33105;47.964;7.982;2023-04-04T10:01:06;97130.69;;;5.02;46.14
47366;BME280;33105;47.964;7.982;2023-04-04T10:04:09;97145.66;;;5.11;47.16
47366;BME280;33105;47.964;7.982;2023-04-04T10:07:12;97139.25;;;5.30;46.48
47366;BME280;33105;47.964;7.982;2023-04-04T10:10:14;97138.06;;;5.51;45.17
47366;BME280;33105;47.964;7.982;2023-04-04T10:13:25;97136.97;;;5.59;42.35
47366;BME280;33105;47.964;7.982;2023-04-04T10:16:34;97135.91;;;5.35;42.47
47366;BME280;33105;47.964;7.982;2023-04-04T10:19:38;97130.50;;;5.60;43.86
47366;BME280;33105;47.964;7.982;2023-04-04T10:22:39;97127.38;;;5.81;41.05
47366;BME280;33105;47.964;7.982;2023-04-04T10:25:43;97146.88;;;5.96;42.94
47366;BME280;33105;47.964;7.982;2023-04-04T10:28:44;97138.91;;;6.20;40.80
47366;BME280;33105;47.964;7.982;2023-04-04T10:31:48;97134.84;;;6.47;40.58
47366;BME280;33105;47.964;7.982;2023-04-04T10:35:00;97131.13;;;6.78;36.87
47366;BME280;33105;47.964;7.982;2023-04-04T10:38:02;97136.56;;;6.78;39.27
47366;BME280;33105;47.964;7.982;2023-04-04T10:41:06;97129.69;;;6.75;38.92
47366;BME280;33105;47.964;7.982;2023-04-04T10:44:28;97119.44;;;6.77;38.75
47366;BME280;33105;47.964;7.982;2023-04-04T10:47:33;97121.56;;;6.75;40.87
47366;BME280;33105;47.964;7.982;2023-04-04T10:50:36;97117.97;;;6.63;40.40
47366;BME280;33105;47.964;7.982;2023-04-04T10:53:39;97122.88;;;6.36;38.81
47366;BME280;33105;47.964;7.982;2023-04-04T10:56:41;97126.22;;;5.95;39.17
47366;BME280;33105;47.964;7.982;2023-04-04T11:00:02;97110.69;;;5.84;39.39
47366;BME280;33105;47.964;7.982;2023-04-04T11:03:08;97112.84;;;6.55;40.23
47366;BME280;33105;47.964;7.982;2023-04-04T11:06:15;97105.44;;;6.44;39.25
47366;BME280;33105;47.964;7.982;2023-04-04T11:09:49;97098.66;;;6.53;39.81
47366;BME280;33105;47.964;7.982;2023-04-04T11:12:52;97094.22;;;6.89;39.81
47366;BME280;33105;47.964;7.982;2023-04-04T11:15:58;97091.28;;;6.90;41.07
47366;BME280;33105;47.964;7.982;2023-04-04T11:19:00;97088.47;;;7.38;40.47
47366;BME280;33105;47.964;7.982;2023-04-04T11:22:01;97088.91;;;7.24;40.29
47366;BME280;33105;47.964;7.982;2023-04-04T11:25:27;97092.44;;;7.24;41.38
47366;BME280;33105;47.964;7.982;2023-04-04T11:31:42;97079.31;;;7.09;40.47
47366;BME280;33105;47.964;7.982;2023-04-04T11:34:43;97073.72;;;7.58;39.11
47366;BME280;33105;47.964;7.982;2023-04-04T11:40:54;97075.09;;;6.95;39.68
47366;BME280;33105;47.964;7.982;2023-04-04T11:43:56;97067.66;;;7.32;39.85
47366;BME280;33105;47.964;7.982;2023-04-04T11:50:09;97069.50;;;7.08;37.76
47366;BME280;33105;47.964;7.982;2023-04-04T11:53:11;97062.94;;;7.39;39.57
47366;BME280;33105;47.964;7.982;2023-04-04T11:56:14;97062.22;;;7.32;38.41
47366;BME280;33105;47.964;7.982;2023-04-04T11:59:19;97060.28;;;7.21;36.48
47366;BME280;33105;47.964;7.982;2023-04-04T12:02:25;97069.56;;;7.55;37.79
47366;BME280;33105;47.964;7.982;2023-04-04T12:05:34;97063.06;;;7.56;39.59
47366;BME280;33105;47.964;7.982;2023-04-04T12:08:35;97065.56;;;7.58;39.21
47366;BME280;33105;47.964;7.982;2023-04-04T12:11:37;97068.75;;;7.78;39.67
47366;BME280;33105;47.964;7.982;2023-04-04T12:14:38;97065.19;;;7.54;37.14
47366;BME280;33105;47.964;7.982;2023-04-04T12:17:40;97067.94;;;7.66;39.27
47366;BME280;33105;47.964;7.982;2023-04-04T12:20:47;97071.00;;;7.81;37.23
47366;BME280;33105;47.964;7.982;2023-04-04T12:23:48;97072.31;;;7.78;36.90
47366;BME280;33105;47.964;7.982;2023-04-04T12:26:50;97065.22;;;7.89;35.70
47366;BME280;33105;47.964;7.982;2023-04-04T12:29:52;97070.91;;;7.88;37.04
47366;BME280;33105;47.964;7.982;2023-04-04T12:32:53;97057.75;;;7.96;36.52
47366;BME280;33105;47.964;7.982;2023-04-04T12:35:54;97062.72;;;7.99;37.54
47366;BME280;33105;47.964;7.982;2023-04-04T12:39:00;97058.06;;;8.23;38.57
47366;BME280;33105;47.964;7.982;2023-04-04T12:42:03;97052.22;;;8.43;37.96
47366;BME280;33105;47.964;7.982;2023-04-04T12:45:05;97051.19;;;8.20;35.45
47366;BME280;33105;47.964;7.982;2023-04-04T12:48:12;97048.69;;;8.31;36.44
47366;BME280;33105;47.964;7.982;2023-04-04T12:51:14;97052.88;;;7.98;36.29
47366;BME280;33105;47.964;7.982;2023-04-04T12:54:27;97050.28;;;8.15;35.21
47366;BME280;33105;47.964;7.982;2023-04-04T12:57:29;97044.75;;;7.75;35.25
47366;BME280;33105;47.964;7.982;2023-04-04T13:00:30;97047.31;;;8.05;37.07
47366;BME280;33105;47.964;7.982;2023-04-04T13:03:32;97038.81;;;8.01;38.51
47366;BME280;33105;47.964;7.982;2023-04-04T13:06:36;97048.88;;;8.01;36.28
47366;BME280;33105;47.964;7.982;2023-04-04T13:09:50;97039.53;;;7.97;36.00
47366;BME280;33105;47.964;7.982;2023-04-04T13:16:00;97044.25;;;8.01;34.52
47366;BME280;33105;47.964;7.982;2023-04-04T13:19:03;97043.59;;;8.46;35.70
47366;BME280;33105;47.964;7.982;2023-04-04T13:22:07;97034.16;;;8.37;33.96
47366;BME280;33105;47.964;7.982;2023-04-04T13:25:09;97020.38;;;8.55;36.58
47366;BME280;33105;47.964;7.982;2023-04-04T13:28:11;97014.53;;;8.35;35.69
47366;BME280;33105;47.964;7.982;2023-04-04T13:31:12;97015.19;;;8.70;35.94
47366;BME280;33105;47.964;7.982;2023-04-04T13:34:15;97019.38;;;8.33;35.36
47366;BME280;33105;47.964;7.982;2023-04-04T13:37:16;97011.63;;;8.53;36.97
47366;BME280;33105;47.964;7.982;2023-04-04T13:40:18;97002.28;;;8.94;36.21
47366;BME280;33105;47.964;7.982;2023-04-04T13:43:19;97004.72;;;9.07;36.30
47366;BME280;33105;47.964;7.982;2023-04-04T13:46:20;96996.91;;;8.82;36.49
47366;BME280;33105;47.964;7.982;2023-04-04T13:49:21;97012.53;;;8.59;35.93
47366;BME280;33105;47.964;7.982;2023-04-04T13:52:23;97008.44;;;8.73;36.25
47366;BME280;33105;47.964;7.982;2023-04-04T13:55:24;97014.63;;;8.40;36.47
47366;BME280;33105;47.964;7.982;2023-04-04T13:58:25;97007.59;;;8.44;38.04
47366;BME280;33105;47.964;7.982;2023-04-04T14:01:27;97005.44;;;9.03;35.88
47366;BME280;33105;47.964;7.982;2023-04-04T14:04:28;97002.91;;;9.30;34.91
47366;BME280;33105;47.964;7.982;2023-04-04T14:07:29;96999.09;;;9.31;37.14
47366;BME280;33105;47.964;7.982;2023-04-04T14:10:31;96993.47;;;9.20;35.37
47366;BME280;33105;47.964;7.982;2023-04-04T14:13:32;96993.13;;;9.17;35.08
47366;BME280;33105;47.964;7.982;2023-04-04T14:16:33;96999.44;;;8.72;36.28
47366;BME280;33105;47.964;7.982;2023-04-04T14:19:36;97000.03;;;8.74;35.99
47366;BME280;33105;47.964;7.982;2023-04-04T14:22:38;96989.53;;;9.11;34.49
47366;BME280;33105;47.964;7.982;2023-04-04T14:25:39;96991.16;;;8.96;36.64
47366;BME280;33105;47.964;7.982;2023-04-04T14:28:40;96988.56;;;9.73;37.16
47366;BME280;33105;47.964;7.982;2023-04-04T14:31:42;96980.28;;;9.29;35.16
47366;BME280;33105;47.964;7.982;2023-04-04T14:34:43;96986.38;;;9.36;34.11
47366;BME280;33105;47.964;7.982;2023-04-04T14:37:44;96981.84;;;9.08;33.63
47366;BME280;33105;47.964;7.982;2023-04-04T14:40:46;96983.41;;;9.21;36.85
47366;BME280;33105;47.964;7.982;2023-04-04T14:43:48;96982.88;;;9.41;36.47
47366;BME280;33105;47.964;7.982;2023-04-04T14:46:50;96984.56;;;9.25;35.13
47366;BME280;33105;47.964;7.982;2023-04-04T14:49:54;96986.63;;;9.51;36.64
47366;BME280;33105;47.964;7.982;2023-04-04T14:52:56;96987.81;;;9.77;34.95
47366;BME280;33105;47.964;7.982;2023-04-04T14:55:57;96987.38;;;9.30;36.85
47366;BME280;33105;47.964;7.982;2023-04-04T14:58:58;96988.94;;;9.60;34.63
47366;BME280;33105;47.964;7.982;2023-04-04T15:02:01;96983.59;;;9.86;35.10
47366;BME280;33105;47.964;7.982;2023-04-04T15:05:03;96992.91;;;9.52;34.74
47366;BME280;33105;47.964;7.982;2023-04-04T15:08:04;96986.97;;;9.38;33.12
47366;BME280;33105;47.964;7.982;2023-04-04T15:11:05;96989.19;;;9.58;38.24
47366;BME280;33105;47.964;7.982;2023-04-04T15:14:07;96988.81;;;9.71;35.85
47366;BME280;33105;47.964;7.982;2023-04-04T15:17:08;96983.88;;;9.51;34.76
47366;BME280;33105;47.964;7.982;2023-04-04T15:20:10;96984.53;;;9.59;33.89
47366;BME280;33105;47.964;7.982;2023-04-04T15:23:11;96983.41;;;9.38;36.29
47366;BME280;33105;47.964;7.982;2023-04-04T15:26:12;96984.31;;;9.27;35.41
47366;BME280;33105;47.964;7.982;2023-04-04T15:29:13;96993.72;;;9.19;36.47
47366;BME280;33105;47.964;7.982;2023-04-04T15:32:15;96992.50;;;8.65;35.70
47366;BME280;33105;47.964;7.982;2023-04-04T15:35:18;96992.25;;;8.66;36.72
47366;BME280;33105;47.964;7.982;2023-04-04T15:38:19;96990.03;;;8.35;36.91
47366;BME280;33105;47.964;7.982;2023-04-04T15:41:21;96993.81;;;8.34;37.58
47366;BME280;33105;47.964;7.982;2023-04-04T15:44:23;96997.94;;;8.36;37.47
47366;BME280;33105;47.964;7.982;2023-04-04T15:47:24;96994.75;;;8.39;38.01
47366;BME280;33105;47.964;7.982;2023-04-04T15:50:26;96995.16;;;8.08;37.59
47366;BME280;33105;47.964;7.982;2023-04-04T15:53:31;96996.09;;;8.02;37.96
47366;BME280;33105;47.964;7.982;2023-04-04T15:56:32;96993.63;;;8.12;38.78
47366;BME280;33105;47.964;7.982;2023-04-04T15:59:33;97002.75;;;7.94;38.21
47366;BME280;33105;47.964;7.982;2023-04-04T16:02:35;97002.50;;;8.07;39.32
47366;BME280;33105;47.964;7.982;2023-04-04T16:05:36;97005.97;;;7.91;39.25
47366;BME280;33105;47.964;7.982;2023-04-04T16:08:38;97000.53;;;7.91;39.28
47366;BME280;33105;47.964;7.982;2023-04-04T16:11:40;97005.38;;;7.77;38.34
47366;BME280;33105;47.964;7.982;2023-04-04T16:14:42;97011.16;;;7.69;38.13
47366;BME280;33105;47.964;7.982;2023-04-04T16:17:44;97004.06;;;7.80;39.13
47366;BME280;33105;47.964;7.982;2023-04-04T16:20:45;96992.97;;;7.70;37.74
47366;BME280;33105;47.964;7.982;2023-04-04T16:23:46;96994.97;;;7.74;38.84
47366;BME280;33105;47.964;7.982;2023-04-04T16:26:47;96999.69;;;7.67;38.45
47366;BME280;33105;47.964;7.982;2023-04-04T16:29:49;97004.31;;;7.43;38.65
47366;BME280;33105;47.964;7.982;2023-04-04T16:32:51;96998.19;;;7.36;38.95
47366;BME280;33105;47.964;7.982;2023-04-04T16:35:52;96995.81;;;7.28;39.78
47366;BME280;33105;47.964;7.982;2023-04-04T16:38:54;97001.38;;;7.33;40.99
47366;BME280;33105;47.964;7.982;2023-04-04T16:41:57;97000.44;;;7.39;40.84
47366;BME280;33105;47.964;7.982;2023-04-04T16:45:00;96987.66;;;7.28;40.08
47366;BME280;33105;47.964;7.982;2023-04-04T16:48:01;96996.03;;;7.15;40.71